createdAt,value
2018-08-14T00:02:31.709Z,18.30
2018-08-14T00:05:03.486Z,18.30
2018-08-14T00:07:35.403Z,18.30
2018-08-14T00:10:09.183Z,18.40
2018-08-14T00:12:41.117Z,18.40
2018-08-14T00:15:15.576Z,18.40
2018-08-14T00:17:49.348Z,18.40
2018-08-14T00:20:22.851Z,18.40
2018-08-14T00:22:54.845Z,18.40
2018-08-14T00:25:26.896Z,18.50
2018-08-14T00:27:58.732Z,18.50
2018-08-14T00:30:31.518Z,18.40
2018-08-14T00:33:03.419Z,18.40
2018-08-14T00:35:35.350Z,18.40
2018-08-14T00:38:07.810Z,18.40
2018-08-14T00:40:39.662Z,18.30
2018-08-14T00:43:12.251Z,18.30
2018-08-14T00:45:44.085Z,18.20
2018-08-14T00:48:15.954Z,18.30
2018-08-14T00:50:47.765Z,18.30
2018-08-14T00:53:19.825Z,18.30
2018-08-14T00:55:51.745Z,18.40
2018-08-14T00:58:23.758Z,18.40
2018-08-14T01:00:55.714Z,18.40
2018-08-14T01:03:27.664Z,18.40
2018-08-14T01:05:59.501Z,18.40
2018-08-14T01:08:31.459Z,18.40
2018-08-14T01:11:03.325Z,18.30
2018-08-14T01:13:35.131Z,18.30
2018-08-14T01:16:07.029Z,18.30
2018-08-14T01:18:39.004Z,18.30
2018-08-14T01:21:10.829Z,18.20
2018-08-14T01:23:42.877Z,18.20
2018-08-14T01:26:14.722Z,18.20
2018-08-14T01:28:47.369Z,18.20
2018-08-14T01:31:19.332Z,18.10
2018-08-14T01:33:51.298Z,18.00
2018-08-14T01:36:22.884Z,18.00
2018-08-14T01:38:54.739Z,17.90
2018-08-14T01:41:26.678Z,17.90
2018-08-14T01:43:58.586Z,17.90
2018-08-14T01:46:30.366Z,17.90
2018-08-14T01:49:02.324Z,17.90
2018-08-14T01:51:34.221Z,17.90
2018-08-14T01:54:06.041Z,17.90
2018-08-14T01:56:37.924Z,18.00
2018-08-14T01:59:09.966Z,18.00
2018-08-14T02:01:41.887Z,18.10
2018-08-14T02:04:13.737Z,18.00
2018-08-14T02:06:45.513Z,18.10
2018-08-14T02:09:17.278Z,18.10
2018-08-14T02:11:49.217Z,18.00
2018-08-14T02:14:21.128Z,18.00
2018-08-14T02:16:52.909Z,18.00
2018-08-14T02:19:24.725Z,17.90
2018-08-14T02:21:56.660Z,17.90
2018-08-14T02:24:28.625Z,17.90
2018-08-14T02:27:00.602Z,17.90
2018-08-14T02:29:32.377Z,17.80
2018-08-14T02:32:04.189Z,17.80
2018-08-14T02:34:36.120Z,17.70
2018-08-14T02:37:07.856Z,17.60
2018-08-14T02:39:39.610Z,17.70
2018-08-14T02:42:11.564Z,17.60
2018-08-14T02:44:43.344Z,17.60
2018-08-14T02:47:15.198Z,17.50
2018-08-14T02:49:47.143Z,17.50
2018-08-14T02:52:19.153Z,17.40
2018-08-14T02:54:50.976Z,17.50
2018-08-14T02:57:22.882Z,17.50
2018-08-14T02:59:54.895Z,17.40
2018-08-14T03:02:26.730Z,17.40
2018-08-14T03:04:58.541Z,17.40
2018-08-14T03:07:30.575Z,17.30
2018-08-14T03:10:02.451Z,17.30
2018-08-14T03:12:34.234Z,17.30
2018-08-14T03:15:06.377Z,17.30
2018-08-14T03:17:38.233Z,17.30
2018-08-14T03:20:09.967Z,17.30
2018-08-14T03:22:41.894Z,17.20
2018-08-14T03:25:13.859Z,17.20
2018-08-14T03:27:45.603Z,17.20
2018-08-14T03:30:17.359Z,17.20
2018-08-14T03:32:49.288Z,17.20
2018-08-14T03:35:21.005Z,17.20
2018-08-14T03:37:52.839Z,17.10
2018-08-14T03:40:24.676Z,17.10
2018-08-14T03:42:56.466Z,17.10
2018-08-14T03:45:28.213Z,17.10
2018-08-14T03:48:00.050Z,17.10
2018-08-14T03:50:31.918Z,17.10
2018-08-14T03:53:03.749Z,17.10
2018-08-14T03:55:35.529Z,17.10
2018-08-14T03:58:07.503Z,17.10
2018-08-14T04:00:39.275Z,17.20
2018-08-14T04:03:11.025Z,17.10
2018-08-14T04:05:42.968Z,17.10
2018-08-14T04:08:14.764Z,17.10
2018-08-14T04:10:46.850Z,17.10
2018-08-14T04:13:18.691Z,17.10
2018-08-14T04:15:50.634Z,17.10
2018-08-14T04:18:22.413Z,17.10
2018-08-14T04:20:54.169Z,17.10
2018-08-14T04:23:26.110Z,17.20
2018-08-14T04:25:58.120Z,17.20
2018-08-14T04:28:29.869Z,17.30
2018-08-14T04:31:01.689Z,17.30
2018-08-14T04:33:33.652Z,17.30
2018-08-14T04:36:05.436Z,17.30
2018-08-14T04:38:37.293Z,17.30
2018-08-14T04:41:09.251Z,17.30
2018-08-14T04:43:41.251Z,17.30
2018-08-14T04:46:13.025Z,17.30
2018-08-14T04:48:44.844Z,17.40
2018-08-14T04:51:16.687Z,17.40
2018-08-14T04:53:48.701Z,17.40
2018-08-14T04:56:20.417Z,17.50
2018-08-14T04:58:52.192Z,17.50
2018-08-14T05:01:24.033Z,17.50
2018-08-14T05:03:55.777Z,17.50
2018-08-14T05:06:27.569Z,17.50
2018-08-14T05:08:59.637Z,17.50
2018-08-14T05:11:31.731Z,17.50
2018-08-14T05:14:03.617Z,17.50
2018-08-14T05:16:35.530Z,17.50
2018-08-14T05:19:07.464Z,17.50
2018-08-14T05:21:39.464Z,17.60
2018-08-14T05:24:11.113Z,17.50
2018-08-14T05:26:42.986Z,17.50
2018-08-14T05:29:14.908Z,17.50
2018-08-14T05:31:47.023Z,17.50
2018-08-14T05:34:18.888Z,17.50
2018-08-14T05:36:50.633Z,17.50
2018-08-14T05:39:22.591Z,17.60
2018-08-14T05:41:54.564Z,17.60
2018-08-14T05:44:26.938Z,17.60
2018-08-14T05:46:58.802Z,17.50
2018-08-14T05:49:30.681Z,17.50
2018-08-14T05:52:02.656Z,17.60
2018-08-14T05:54:34.366Z,17.60
2018-08-14T05:57:06.141Z,17.60
2018-08-14T05:59:38.074Z,17.70
2018-08-14T06:02:09.955Z,17.70
2018-08-14T06:04:41.839Z,17.70
2018-08-14T06:07:13.753Z,17.80
2018-08-14T06:09:45.662Z,17.80
2018-08-14T06:12:17.415Z,17.90
2018-08-14T06:14:49.249Z,17.90
2018-08-14T06:17:21.300Z,17.90
2018-08-14T06:19:53.272Z,18.00
2018-08-14T06:22:25.036Z,17.90
2018-08-14T06:24:56.909Z,18.00
2018-08-14T06:27:28.782Z,18.00
2018-08-14T06:30:00.830Z,18.00
2018-08-14T06:32:32.592Z,18.10
2018-08-14T06:35:04.358Z,18.10
2018-08-14T06:37:38.490Z,18.10
2018-08-14T06:40:13.772Z,18.20
2018-08-14T06:42:45.910Z,18.20
2018-08-14T06:45:18.681Z,18.30
2018-08-14T06:47:50.543Z,18.30
2018-08-14T06:50:22.787Z,18.30
2018-08-14T06:52:54.729Z,18.40
2018-08-14T06:55:26.538Z,18.40
2018-08-14T06:57:58.426Z,18.50
2018-08-14T07:00:30.294Z,18.50
2018-08-14T07:03:02.189Z,18.60
2018-08-14T07:05:33.918Z,18.60
2018-08-14T07:08:06.201Z,18.70
2018-08-14T07:10:38.114Z,18.70
2018-08-14T07:13:09.841Z,18.80
2018-08-14T07:15:41.609Z,18.80
2018-08-14T07:18:13.391Z,18.80
2018-08-14T07:20:45.156Z,18.90
2018-08-14T07:23:16.985Z,18.90
2018-08-14T07:25:48.957Z,19.00
2018-08-14T07:28:20.921Z,19.10
2018-08-14T07:30:52.666Z,19.20
2018-08-14T07:33:24.455Z,19.20
2018-08-14T07:35:56.474Z,19.20
2018-08-14T07:38:28.337Z,19.20
2018-08-14T07:41:00.157Z,19.20
2018-08-14T07:43:31.882Z,19.10
2018-08-14T07:46:03.821Z,19.20
2018-08-14T07:48:35.828Z,19.20
2018-08-14T07:51:07.754Z,19.20
2018-08-14T07:53:39.533Z,19.20
2018-08-14T07:56:11.310Z,19.30
2018-08-14T07:58:42.949Z,19.30
2018-08-14T08:01:14.776Z,19.30
2018-08-14T08:03:46.469Z,19.40
2018-08-14T08:06:18.379Z,19.40
2018-08-14T08:08:50.368Z,19.50
2018-08-14T08:11:22.326Z,19.70
2018-08-14T08:13:54.030Z,19.80
2018-08-14T08:16:25.696Z,20.00
2018-08-14T08:18:57.526Z,20.20
2018-08-14T08:21:29.357Z,20.40
2018-08-14T08:24:01.375Z,20.50
2018-08-14T08:26:33.177Z,20.60
2018-08-14T08:29:05.082Z,20.70
2018-08-14T08:31:37.016Z,20.70
2018-08-14T08:34:09.102Z,20.70
2018-08-14T08:36:40.857Z,20.70
2018-08-14T08:39:12.725Z,20.60
2018-08-14T08:41:45.484Z,20.60
2018-08-14T08:44:17.275Z,20.50
2018-08-14T08:46:49.107Z,20.50
2018-08-14T08:49:27.550Z,20.50
2018-08-14T08:52:06.891Z,20.60
2018-08-14T08:54:39.433Z,20.70
2018-08-14T08:57:11.297Z,20.80
2018-08-14T08:59:43.184Z,20.80
2018-08-14T09:02:15.144Z,20.80
2018-08-14T09:04:46.793Z,20.90
2018-08-14T09:07:18.747Z,21.00
2018-08-14T09:09:50.520Z,21.00
2018-08-14T09:12:47.325Z,20.90
2018-08-14T09:15:21.461Z,20.90
2018-08-14T09:17:53.471Z,21.00
2018-08-14T09:20:25.212Z,21.10
2018-08-14T09:22:57.057Z,21.20
2018-08-14T09:25:28.933Z,21.40
2018-08-14T09:28:01.049Z,21.60
2018-08-14T09:30:32.981Z,21.80
2018-08-14T09:33:04.925Z,21.80
2018-08-14T09:35:37.097Z,21.80
2018-08-14T09:38:09.255Z,21.70
2018-08-14T09:40:50.567Z,21.60
2018-08-14T09:43:22.348Z,21.50
2018-08-14T09:45:54.262Z,21.40
2018-08-14T09:49:03.211Z,21.30
2018-08-14T09:52:17.788Z,21.40
2018-08-14T09:55:11.871Z,21.60
2018-08-14T09:57:43.718Z,21.80
2018-08-14T10:00:27.704Z,21.80
2018-08-14T10:03:04.671Z,21.80
2018-08-14T10:05:41.438Z,21.70
2018-08-14T10:08:16.205Z,21.80
2018-08-14T10:10:48.140Z,21.90
2018-08-14T10:13:20.929Z,22.20
2018-08-14T10:15:53.089Z,22.40
2018-08-14T10:18:26.742Z,22.70
2018-08-14T10:20:58.694Z,22.80
2018-08-14T10:23:32.136Z,22.90
2018-08-14T10:26:04.007Z,23.00
2018-08-14T10:28:35.817Z,23.10
2018-08-14T10:31:07.824Z,23.30
2018-08-14T10:33:39.603Z,23.40
2018-08-14T10:36:11.518Z,23.30
2018-08-14T10:38:43.406Z,23.10
2018-08-14T10:41:15.199Z,23.00
2018-08-14T10:43:47.002Z,22.80
2018-08-14T10:46:18.974Z,22.80
2018-08-14T10:48:50.735Z,23.00
2018-08-14T10:51:22.602Z,23.20
2018-08-14T10:53:54.450Z,23.50
2018-08-14T10:56:26.275Z,23.60
2018-08-14T10:58:58.093Z,23.70
2018-08-14T11:01:29.821Z,23.60
2018-08-14T11:04:01.715Z,23.50
2018-08-14T11:06:33.660Z,23.30
2018-08-14T11:09:06.713Z,23.00
2018-08-14T11:11:43.304Z,23.00
2018-08-14T11:14:17.557Z,22.90
2018-08-14T11:16:49.328Z,23.00
2018-08-14T11:19:21.286Z,23.00
2018-08-14T11:21:53.201Z,22.80
2018-08-14T11:24:24.974Z,22.70
2018-08-14T11:26:56.758Z,22.60
2018-08-14T11:29:28.667Z,22.40
2018-08-14T11:32:00.637Z,22.30
2018-08-14T11:34:32.413Z,22.20
2018-08-14T11:37:05.434Z,22.10
2018-08-14T11:39:37.266Z,22.10
2018-08-14T11:42:09.219Z,22.10
2018-08-14T11:44:40.990Z,22.30
2018-08-14T11:47:13.502Z,22.40
2018-08-14T11:49:45.283Z,22.50
2018-08-14T11:52:17.165Z,22.60
2018-08-14T11:54:49.013Z,22.80
2018-08-14T11:57:20.712Z,23.10
2018-08-14T11:59:52.649Z,23.20
2018-08-14T12:02:24.660Z,23.40
2018-08-14T12:04:56.388Z,23.50
2018-08-14T12:07:28.147Z,23.40
2018-08-14T12:09:59.998Z,23.30
2018-08-14T12:12:31.777Z,23.10
2018-08-14T12:15:03.545Z,23.00
2018-08-14T12:17:35.423Z,22.90
2018-08-14T12:20:09.489Z,22.80
2018-08-14T12:22:41.456Z,22.90
2018-08-14T12:25:14.862Z,23.00
2018-08-14T12:27:47.371Z,23.10
2018-08-14T12:30:21.405Z,23.10
2018-08-14T12:32:53.450Z,23.10
2018-08-14T12:35:25.251Z,23.00
2018-08-14T12:37:57.181Z,22.90
2018-08-14T12:40:29.311Z,22.90
2018-08-14T12:43:01.178Z,22.70
2018-08-14T12:45:33.122Z,22.60
2018-08-14T12:48:05.081Z,22.50
2018-08-14T12:50:36.857Z,22.30
2018-08-14T12:53:08.628Z,22.20
2018-08-14T12:55:40.455Z,22.00
2018-08-14T12:58:12.266Z,21.80
2018-08-14T13:00:44.069Z,21.70
2018-08-14T13:03:15.986Z,21.60
2018-08-14T13:05:47.635Z,21.50
2018-08-14T13:08:19.441Z,21.40
2018-08-14T13:10:51.423Z,21.30
2018-08-14T13:13:23.174Z,21.40
2018-08-14T13:15:54.881Z,21.40
2018-08-14T13:18:26.802Z,21.40
2018-08-14T13:20:58.562Z,21.50
2018-08-14T13:23:30.449Z,21.60
2018-08-14T13:26:02.414Z,21.70
2018-08-14T13:28:34.186Z,21.80
2018-08-14T13:31:05.952Z,21.90
2018-08-14T13:33:37.728Z,22.00
2018-08-14T13:36:09.554Z,22.10
2018-08-14T13:38:41.378Z,22.20
2018-08-14T13:41:13.346Z,22.30
2018-08-14T13:43:45.029Z,22.30
2018-08-14T13:46:16.788Z,22.40
2018-08-14T13:48:48.622Z,22.50
2018-08-14T13:51:20.482Z,22.50
2018-08-14T13:53:52.392Z,22.60
2018-08-14T13:56:24.283Z,22.60
2018-08-14T13:58:56.429Z,22.70
2018-08-14T14:01:28.236Z,22.70
2018-08-14T14:04:00.048Z,22.90
2018-08-14T14:06:31.781Z,23.10
2018-08-14T14:09:04.713Z,23.40
2018-08-14T14:11:36.648Z,23.50
2018-08-14T14:14:08.461Z,23.50
2018-08-14T14:16:40.326Z,23.50
2018-08-14T14:19:12.134Z,23.50
2018-08-14T14:21:43.884Z,23.50
2018-08-14T14:24:15.702Z,23.50
2018-08-14T14:26:47.412Z,23.50
2018-08-14T14:29:19.170Z,23.40
2018-08-14T14:31:51.013Z,23.30
2018-08-14T14:34:22.944Z,23.20
2018-08-14T14:36:54.960Z,23.10
2018-08-14T14:39:26.727Z,23.00
2018-08-14T14:41:58.549Z,22.70
2018-08-14T14:44:30.544Z,22.50
2018-08-14T14:47:02.505Z,22.20
2018-08-14T14:49:34.221Z,22.10
2018-08-14T14:52:06.216Z,21.80
2018-08-14T14:54:38.032Z,21.50
2018-08-14T14:57:09.804Z,21.30
2018-08-14T14:59:41.591Z,21.20
2018-08-14T15:02:13.624Z,21.10
2018-08-14T15:04:45.578Z,21.10
2018-08-14T15:07:17.253Z,21.00
2018-08-14T15:09:49.133Z,21.00
2018-08-14T15:12:21.132Z,20.90
2018-08-14T15:14:53.031Z,20.90
2018-08-14T15:17:24.941Z,20.90
2018-08-14T15:19:56.762Z,20.90
2018-08-14T15:22:28.871Z,21.00
2018-08-14T15:25:00.610Z,21.00
2018-08-14T15:27:32.559Z,21.00
2018-08-14T15:30:17.253Z,20.90
2018-08-14T15:32:49.176Z,20.90
2018-08-14T15:35:20.852Z,21.00
2018-08-14T15:37:52.235Z,21.00
2018-08-14T15:40:23.637Z,21.00
2018-08-14T15:42:55.069Z,21.10
2018-08-14T15:45:26.886Z,21.10
2018-08-14T15:47:58.628Z,21.10
2018-08-14T15:50:30.509Z,21.10
2018-08-14T15:53:02.217Z,21.20
2018-08-14T15:55:33.993Z,21.20
2018-08-14T15:58:05.839Z,21.30
2018-08-14T16:00:37.740Z,21.30
2018-08-14T16:03:09.984Z,21.40
2018-08-14T16:05:41.930Z,21.40
2018-08-14T16:08:13.741Z,21.50
2018-08-14T16:10:45.593Z,21.50
2018-08-14T16:13:17.767Z,21.60
2018-08-14T16:15:49.702Z,21.70
2018-08-14T16:18:21.470Z,21.70
2018-08-14T16:20:53.223Z,21.80
2018-08-14T16:23:25.173Z,21.80
2018-08-14T16:25:57.124Z,21.90
2018-08-14T16:28:29.077Z,21.90
2018-08-14T16:31:00.974Z,21.90
2018-08-14T16:33:32.963Z,21.90
2018-08-14T16:36:04.780Z,21.90
2018-08-14T16:38:36.590Z,21.90
2018-08-14T16:41:08.513Z,22.00
2018-08-14T16:43:40.402Z,22.00
2018-08-14T16:46:12.273Z,21.90
2018-08-14T16:48:43.910Z,21.90
2018-08-14T16:51:15.640Z,21.90
2018-08-14T16:53:51.365Z,21.80
2018-08-14T16:56:23.102Z,21.80
2018-08-14T16:58:54.856Z,21.80
2018-08-14T17:01:26.693Z,21.80
2018-08-14T17:03:58.643Z,21.70
2018-08-14T17:06:30.601Z,21.70
2018-08-14T17:09:02.292Z,21.70
2018-08-14T17:11:34.143Z,21.70
2018-08-14T17:14:06.413Z,21.70
2018-08-14T17:16:38.508Z,21.60
2018-08-14T17:19:10.416Z,21.50
2018-08-14T17:21:39.569Z,21.50
2018-08-14T17:24:11.289Z,21.50
2018-08-14T17:26:43.151Z,21.40
2018-08-14T17:29:15.097Z,21.30
2018-08-14T17:31:47.057Z,21.20
2018-08-14T17:34:19.077Z,21.20
2018-08-14T17:36:50.943Z,21.10
2018-08-14T17:39:22.714Z,21.10
2018-08-14T17:41:54.602Z,21.10
2018-08-14T17:44:26.516Z,21.10
2018-08-14T17:46:58.190Z,21.00
2018-08-14T17:49:30.025Z,21.00
2018-08-14T17:52:01.875Z,21.10
2018-08-14T17:54:33.895Z,21.00
2018-08-14T17:57:05.733Z,21.00
2018-08-14T17:59:37.558Z,21.00
2018-08-14T18:02:09.623Z,21.00
2018-08-14T18:04:41.460Z,20.90
2018-08-14T18:07:13.128Z,20.90
2018-08-14T18:09:44.909Z,20.80
2018-08-14T18:12:16.834Z,20.80
2018-08-14T18:14:48.504Z,20.70
2018-08-14T18:17:20.468Z,20.70
2018-08-14T18:19:52.327Z,20.70
2018-08-14T18:22:24.186Z,20.60
2018-08-14T18:24:55.881Z,20.60
2018-08-14T18:27:27.712Z,20.60
2018-08-14T18:29:59.613Z,20.60
2018-08-14T18:32:31.540Z,20.60
2018-08-14T18:35:03.208Z,20.60
2018-08-14T18:37:34.977Z,20.50
2018-08-14T18:40:09.360Z,20.50
2018-08-14T18:42:41.168Z,20.40
2018-08-14T18:45:15.152Z,20.40
2018-08-14T18:47:47.073Z,20.40
2018-08-14T18:50:19.573Z,20.30
2018-08-14T18:52:51.546Z,20.30
2018-08-14T18:55:23.504Z,20.30
2018-08-14T18:57:55.278Z,20.20
2018-08-14T19:00:27.784Z,20.20
2018-08-14T19:02:59.541Z,20.20
2018-08-14T19:05:31.274Z,20.10
2018-08-14T19:08:03.213Z,20.10
2018-08-14T19:10:35.068Z,20.00
2018-08-14T19:13:06.850Z,20.00
2018-08-14T19:15:39.721Z,20.00
2018-08-14T19:18:13.185Z,19.90
2018-08-14T19:20:44.902Z,19.90
2018-08-14T19:23:16.735Z,19.90
2018-08-14T19:25:48.521Z,19.90
2018-08-14T19:28:20.274Z,19.90
2018-08-14T19:30:52.113Z,19.90
2018-08-14T19:33:23.992Z,19.80
2018-08-14T19:35:55.860Z,19.80
2018-08-14T19:38:27.703Z,19.80
2018-08-14T19:40:59.500Z,19.70
2018-08-14T19:43:31.138Z,19.70
2018-08-14T19:46:02.997Z,19.60
2018-08-14T19:48:34.992Z,19.60
2018-08-14T19:51:07.048Z,19.60
2018-08-14T19:53:38.821Z,19.60
2018-08-14T19:56:10.657Z,19.60
2018-08-14T19:58:42.588Z,19.60
2018-08-14T20:01:14.533Z,19.50
2018-08-14T20:03:46.374Z,19.50
2018-08-14T20:06:18.277Z,19.40
2018-08-14T20:08:50.079Z,19.30
2018-08-14T20:11:22.043Z,19.30
2018-08-14T20:13:53.889Z,19.20
2018-08-14T20:16:25.834Z,19.10
2018-08-14T20:18:57.609Z,19.10
2018-08-14T20:21:29.597Z,19.10
2018-08-14T20:24:01.381Z,19.00
2018-08-14T20:26:33.319Z,19.00
2018-08-14T20:29:05.381Z,18.90
2018-08-14T20:31:37.293Z,18.90
2018-08-14T20:34:08.996Z,18.90
2018-08-14T20:36:40.869Z,18.90
2018-08-14T20:39:12.825Z,18.90
2018-08-14T20:41:44.569Z,18.90
2018-08-14T20:44:16.437Z,18.80
2018-08-14T20:46:48.297Z,18.80
2018-08-14T20:49:20.177Z,18.70
2018-08-14T20:51:51.932Z,18.60
2018-08-14T20:54:23.783Z,18.60
2018-08-14T20:56:55.708Z,18.50
2018-08-14T20:59:27.483Z,18.50
2018-08-14T21:01:59.332Z,18.40
2018-08-14T21:04:31.195Z,18.30
2018-08-14T21:07:03.233Z,18.20
2018-08-14T21:09:35.166Z,18.10
2018-08-14T21:12:07.005Z,18.10
2018-08-14T21:14:38.891Z,18.00
2018-08-14T21:17:10.701Z,18.00
2018-08-14T21:19:48.659Z,17.90
2018-08-14T21:22:20.601Z,17.80
2018-08-14T21:24:52.632Z,17.70
2018-08-14T21:27:24.412Z,17.60
2018-08-14T21:29:56.171Z,17.60
2018-08-14T21:32:28.201Z,17.50
2018-08-14T21:34:59.933Z,17.50
2018-08-14T21:37:31.784Z,17.50
2018-08-14T21:40:03.544Z,17.50
2018-08-14T21:42:35.298Z,17.50
2018-08-14T21:45:09.655Z,17.40
2018-08-14T21:47:41.469Z,17.40
2018-08-14T21:50:13.297Z,17.30
2018-08-14T21:52:45.205Z,17.30
2018-08-14T21:55:16.814Z,17.30
2018-08-14T21:57:48.267Z,17.30
2018-08-14T22:00:24.948Z,17.30
2018-08-14T22:02:56.750Z,17.20
2018-08-14T22:05:28.655Z,17.20
2018-08-14T22:08:00.435Z,17.10
2018-08-14T22:10:32.200Z,17.00
2018-08-14T22:13:03.945Z,17.00
2018-08-14T22:15:35.817Z,16.90
2018-08-14T22:18:07.867Z,16.90
2018-08-14T22:20:39.725Z,16.80
2018-08-14T22:23:11.603Z,16.80
2018-08-14T22:25:43.601Z,16.80
2018-08-14T22:28:15.423Z,16.80
2018-08-14T22:30:47.289Z,16.80
2018-08-14T22:33:19.070Z,16.70
2018-08-14T22:35:50.893Z,16.70
2018-08-14T22:38:23.931Z,16.70
2018-08-14T22:40:55.614Z,16.60
2018-08-14T22:43:27.500Z,16.60
2018-08-14T22:45:59.494Z,16.60
2018-08-14T22:48:31.197Z,16.60
2018-08-14T22:51:03.003Z,16.60
2018-08-14T22:53:34.732Z,16.60
2018-08-14T22:56:06.724Z,16.60
2018-08-14T22:58:38.461Z,16.60
2018-08-14T23:01:10.345Z,16.60
2018-08-14T23:03:42.339Z,16.60
2018-08-14T23:06:14.168Z,16.60
2018-08-14T23:08:46.096Z,16.60
2018-08-14T23:11:18.011Z,16.60
2018-08-14T23:13:49.846Z,16.60
2018-08-14T23:16:21.739Z,16.60
2018-08-14T23:18:53.488Z,16.50
2018-08-14T23:21:25.312Z,16.50
2018-08-14T23:23:57.229Z,16.40
2018-08-14T23:26:29.074Z,16.40
2018-08-14T23:29:00.889Z,16.30
2018-08-14T23:31:32.674Z,16.10
2018-08-14T23:34:04.459Z,16.10
2018-08-14T23:36:36.390Z,16.00
2018-08-14T23:39:12.361Z,16.10
2018-08-14T23:41:44.506Z,16.10
2018-08-14T23:44:16.403Z,16.10
2018-08-14T23:46:48.338Z,16.10
2018-08-14T23:49:20.196Z,16.00
2018-08-14T23:51:52.106Z,16.00
2018-08-14T23:54:23.865Z,16.00
2018-08-14T23:56:55.681Z,16.00
2018-08-14T23:59:27.636Z,16.00
